Time;durP1;ratioP1;P1;durP2;ratioP2;P2;SDS_P1;SDS_P2;PMS_P1;PMS_P2;Temp;Humidity;BMP_temperature;BMP_pressure;BME280_temperature;BME280_humidity;BME280_pressure;Samples;Min_cycle;Max_cycle;Signal;HPM_P1;HPM_P2
2023/05/27 00:01:28;;;;;;;23.42;6.38;;;;;;;9.92;81.44;102726.03;5094753;28;20480;-72
2023/05/27 00:03:53;;;;;;;21.48;6.15;;;;;;;9.84;81.35;102725.47;5104678;28;20046;-72
2023/05/27 00:06:19;;;;;;;21.98;5.95;;;;;;;9.80;81.71;102725.59;5096680;28;20470;-72
2023/05/27 00:08:44;;;;;;;22.88;6.43;;;;;;;9.71;82.29;102722.41;5102498;28;20028;-72
2023/05/27 00:11:10;;;;;;;25.42;6.07;;;;;;;9.69;82.40;102724.28;5101749;28;20173;-72
2023/05/27 00:13:35;;;;;;;17.13;5.63;;;;;;;9.63;82.15;102725.38;5080561;28;20053;-72
2023/05/27 00:16:01;;;;;;;23.75;5.93;;;;;;;9.63;82.72;102725.38;5080981;28;20031;-72
2023/05/27 00:18:26;;;;;;;22.23;6.50;;;;;;;9.58;82.35;102722.88;5098935;28;20038;-73
2023/05/27 00:20:51;;;;;;;17.95;6.18;;;;;;;9.55;82.95;102725.69;5100332;28;20425;-72
2023/05/27 00:23:17;;;;;;;21.73;6.00;;;;;;;9.49;83.12;102717.88;5091745;28;20095;-72
2023/05/27 00:25:42;;;;;;;19.38;6.13;;;;;;;9.49;83.29;102714.31;5083448;28;20089;-72
2023/05/27 00:28:07;;;;;;;25.80;6.05;;;;;;;9.48;83.50;102712.56;5083590;28;20089;-73
2023/05/27 00:30:33;;;;;;;20.75;5.40;;;;;;;9.45;83.43;102719.78;5101824;28;20032;-72
2023/05/27 00:32:58;;;;;;;21.00;5.60;;;;;;;9.42;83.85;102719.91;5083037;28;20116;-72
2023/05/27 00:35:23;;;;;;;22.77;6.68;;;;;;;9.33;84.00;102706.88;5078090;28;20042;-72
2023/05/27 00:37:49;;;;;;;20.27;5.60;;;;;;;9.33;83.94;102712.22;5096183;28;20493;-72
2023/05/27 00:40:16;;;;;;;20.35;5.20;;;;;;;9.27;83.79;102712.47;5096092;28;20062;-72
2023/05/27 00:42:42;;;;;;;20.83;5.93;;;;;;;9.24;84.10;102708.09;5099407;28;20447;-72
2023/05/27 00:45:08;;;;;;;21.70;5.75;;;;;;;9.19;83.89;102710.06;5083453;28;20020;-72
2023/05/27 00:47:34;;;;;;;18.45;5.78;;;;;;;9.13;83.96;102710.28;5073008;28;20055;-72
2023/05/27 00:50:00;;;;;;;19.25;5.68;;;;;;;9.15;84.16;102708.44;5077696;28;20416;-73
2023/05/27 00:52:25;;;;;;;25.02;5.63;;;;;;;9.10;84.38;102713.94;5101552;28;20099;-72
2023/05/27 00:54:53;;;;;;;20.58;5.55;;;;;;;9.10;84.49;102708.59;5094467;28;20124;-72
2023/05/27 00:57:18;;;;;;;25.40;6.30;;;;;;;9.03;84.66;102701.69;5083563;28;20036;-72
2023/05/27 00:59:43;;;;;;;21.83;6.60;;;;;;;8.98;84.91;102706.38;5079798;28;20110;-72
2023/05/27 01:02:10;;;;;;;22.55;5.60;;;;;;;8.91;84.67;102697.66;5101271;28;20242;-73
2023/05/27 01:04:36;;;;;;;20.90;5.82;;;;;;;8.87;85.05;102705.88;5101243;28;20028;-72
2023/05/27 01:07:16;;;;;;;21.45;5.45;;;;;;;8.87;84.86;102703.19;5081250;28;20046;-72
2023/05/27 01:09:47;;;;;;;25.48;6.43;;;;;;;8.84;85.07;102697.94;5089381;28;20021;-72
2023/05/27 01:12:51;;;;;;;18.60;4.75;;;;;;;8.88;84.13;102700.47;5093585;28;20049;-72
2023/05/27 01:15:18;;;;;;;22.02;6.07;;;;;;;8.79;84.97;102697.25;5056261;28;20036;-72
2023/05/27 01:17:47;;;;;;;20.67;5.95;;;;;;;8.78;85.06;102698.19;5081689;28;20019;-72
2023/05/27 01:20:14;;;;;;;19.15;5.75;;;;;;;8.73;85.08;102701.03;5100958;28;20468;-72
2023/05/27 01:22:41;;;;;;;21.40;6.40;;;;;;;8.67;85.44;102696.75;5107733;28;20027;-72
2023/05/27 01:25:08;;;;;;;18.77;4.80;;;;;;;8.66;85.41;102704.84;5082027;28;20027;-72
2023/05/27 01:27:33;;;;;;;23.35;5.70;;;;;;;8.68;85.53;102695.84;5079015;28;20032;-72
2023/05/27 01:29:59;;;;;;;17.13;5.03;;;;;;;8.65;85.67;102697.75;5100310;28;20024;-72
2023/05/27 01:32:33;;;;;;;20.05;5.75;;;;;;;8.71;85.33;102698.41;5091299;28;20097;-72
2023/05/27 01:35:04;;;;;;;18.98;5.32;;;;;;;8.70;85.21;102691.28;5082428;28;20563;-72
2023/05/27 01:37:35;;;;;;;19.77;5.05;;;;;;;8.67;85.18;102683.34;5100904;28;20107;-72
2023/05/27 01:40:05;;;;;;;22.45;5.65;;;;;;;8.66;85.47;102689.63;5092105;28;20111;-72
2023/05/27 01:42:34;;;;;;;18.70;5.38;;;;;;;8.61;85.22;102688.94;5098810;28;20048;-72
2023/05/27 01:45:00;;;;;;;18.55;5.05;;;;;;;8.54;85.67;102674.88;5101913;28;20426;-72
2023/05/27 01:47:27;;;;;;;19.35;5.13;;;;;;;8.52;85.89;102682.09;5103927;28;20390;-72
2023/05/27 01:49:52;;;;;;;21.23;4.82;;;;;;;8.55;86.63;102678.41;5085286;28;20092;-72
2023/05/27 01:52:18;;;;;;;22.63;5.72;;;;;;;8.54;86.70;102679.38;5078617;28;20479;-73
2023/05/27 01:54:43;;;;;;;16.77;5.03;;;;;;;8.56;86.38;102678.41;5082523;28;20111;-72
2023/05/27 01:57:08;;;;;;;19.90;5.15;;;;;;;8.55;86.29;102678.41;5083427;28;20234;-72
2023/05/27 01:59:33;;;;;;;24.45;5.22;;;;;;;8.55;86.13;102676.63;5091569;28;20474;-72
2023/05/27 02:01:59;;;;;;;20.63;5.47;;;;;;;8.56;86.15;102675.72;5095703;28;20028;-72
2023/05/27 02:04:24;;;;;;;17.58;5.43;;;;;;;8.55;86.10;102673.06;5100328;28;20104;-72
2023/05/27 02:06:49;;;;;;;18.55;5.57;;;;;;;8.51;86.35;102672.31;5076239;28;20127;-72
2023/05/27 02:09:15;;;;;;;22.10;6.15;;;;;;;8.53;85.98;102672.25;5099832;28;20386;-72
2023/05/27 02:11:40;;;;;;;20.05;5.25;;;;;;;8.46;86.04;102676.06;5076337;28;20375;-72
2023/05/27 02:14:07;;;;;;;21.33;5.85;;;;;;;8.45;86.32;102674.31;5099159;28;20023;-72
2023/05/27 02:16:32;;;;;;;20.55;5.97;;;;;;;8.44;86.26;102683.28;5071413;28;20032;-72
2023/05/27 02:19:00;;;;;;;19.33;5.68;;;;;;;8.39;86.21;102681.63;5080768;28;20019;-72
2023/05/27 02:21:26;;;;;;;17.35;5.40;;;;;;;8.36;86.62;102679.06;5103670;28;20479;-73
2023/05/27 02:23:51;;;;;;;20.38;5.75;;;;;;;8.37;86.60;102682.59;5094359;28;20072;-72
2023/05/27 02:26:16;;;;;;;21.88;5.90;;;;;;;8.36;87.00;102678.16;5076324;28;20491;-72
2023/05/27 02:28:42;;;;;;;23.67;5.35;;;;;;;8.32;87.02;102680.06;5091383;28;20483;-72
2023/05/27 02:31:08;;;;;;;18.50;5.22;;;;;;;8.27;87.07;102676.66;5101093;28;20123;-72
2023/05/27 02:33:34;;;;;;;23.55;5.63;;;;;;;8.27;87.67;102686.50;5092483;28;20106;-72
2023/05/27 02:35:59;;;;;;;19.70;5.18;;;;;;;8.27;87.51;102681.16;5075924;28;20035;-72
2023/05/27 02:38:25;;;;;;;19.58;5.63;;;;;;;8.22;87.57;102676.81;5096359;28;20035;-73
2023/05/27 02:40:50;;;;;;;22.25;5.80;;;;;;;8.25;87.49;102678.53;5099095;28;20034;-72
2023/05/27 02:43:16;;;;;;;18.60;5.72;;;;;;;8.22;87.51;102679.50;5089879;28;20131;-73
2023/05/27 02:45:42;;;;;;;20.38;5.10;;;;;;;8.21;86.90;102674.22;5095371;28;20346;-73
2023/05/27 02:48:07;;;;;;;20.90;5.50;;;;;;;8.22;87.43;102673.28;5077461;28;20290;-72
2023/05/27 02:50:33;;;;;;;14.85;5.13;;;;;;;8.14;87.61;102676.22;5080360;28;20024;-72
2023/05/27 02:52:58;;;;;;;22.75;5.80;;;;;;;8.16;87.79;102681.53;5083920;28;20019;-73
2023/05/27 02:55:23;;;;;;;16.90;4.75;;;;;;;8.13;87.77;102689.69;5075334;28;20097;-72
2023/05/27 02:57:49;;;;;;;18.90;5.00;;;;;;;8.18;87.89;102690.38;5095185;28;20085;-73
2023/05/27 03:00:14;;;;;;;19.40;5.65;;;;;;;8.14;87.81;102694.97;5100755;28;20054;-72
2023/05/27 03:02:40;;;;;;;20.73;5.95;;;;;;;8.14;88.07;102697.66;5084302;28;20061;-73
2023/05/27 03:05:06;;;;;;;21.98;6.43;;;;;;;8.17;88.38;102702.00;5095069;28;20062;-72
2023/05/27 03:07:31;;;;;;;20.23;5.93;;;;;;;8.17;88.18;102693.97;5079672;28;20059;-73
2023/05/27 03:09:58;;;;;;;21.73;5.85;;;;;;;8.15;88.35;102694.03;5099458;28;20198;-73
2023/05/27 03:12:23;;;;;;;19.00;4.85;;;;;;;8.16;88.36;102694.94;5100050;28;20031;-72
2023/05/27 03:14:49;;;;;;;19.70;5.95;;;;;;;8.14;88.64;102691.41;5084114;28;20027;-73
2023/05/27 03:17:15;;;;;;;19.20;5.60;;;;;;;8.11;88.73;102691.50;5079549;28;20451;-73
2023/05/27 03:19:41;;;;;;;17.63;5.25;;;;;;;8.10;88.50;102690.66;5087524;28;20042;-72
2023/05/27 03:22:07;;;;;;;19.85;5.57;;;;;;;8.14;88.46;102692.31;5084963;28;20080;-72
2023/05/27 03:24:33;;;;;;;20.42;5.60;;;;;;;8.11;88.22;102689.72;5101719;28;20019;-72
2023/05/27 03:26:58;;;;;;;21.38;5.40;;;;;;;8.12;88.27;102683.44;5075437;28;20020;-72
2023/05/27 03:29:24;;;;;;;19.38;5.30;;;;;;;8.09;88.54;102688.03;5078559;28;20038;-72
2023/05/27 03:31:49;;;;;;;22.08;6.15;;;;;;;8.07;88.62;102685.41;5098337;28;20505;-72
2023/05/27 03:34:14;;;;;;;19.50;5.78;;;;;;;8.04;88.24;102680.16;5099020;28;20024;-73
2023/05/27 03:36:42;;;;;;;19.23;5.18;;;;;;;8.04;88.92;102683.69;5092363;28;20034;-73
2023/05/27 03:39:08;;;;;;;18.30;4.88;;;;;;;8.03;88.78;102668.53;5071438;28;20483;-72
2023/05/27 03:41:33;;;;;;;24.13;7.13;;;;;;;8.07;89.22;102669.34;5099064;28;20114;-73
2023/05/27 03:43:58;;;;;;;21.40;6.00;;;;;;;8.07;89.65;102677.38;5100351;28;20032;-73
2023/05/27 03:46:23;;;;;;;20.38;5.40;;;;;;;8.06;89.53;102670.25;5076272;28;20078;-72
2023/05/27 03:48:49;;;;;;;23.42;6.00;;;;;;;8.07;89.87;102669.34;5073003;28;20432;-72
2023/05/27 03:51:14;;;;;;;24.65;6.03;;;;;;;8.09;89.71;102666.59;5078301;28;20085;-73
2023/05/27 03:53:40;;;;;;;24.75;5.90;;;;;;;8.12;89.41;102666.50;5075890;28;20024;-73
2023/05/27 03:56:05;;;;;;;24.00;6.50;;;;;;;8.11;89.21;102659.38;5096694;28;20406;-72
2023/05/27 03:58:31;;;;;;;21.77;6.13;;;;;;;8.14;89.25;102653.91;5072645;28;20020;-72
2023/05/27 04:00:56;;;;;;;24.65;6.85;;;;;;;8.14;89.19;102664.63;5095836;28;20059;-72
2023/05/27 04:03:21;;;;;;;22.90;6.50;;;;;;;8.16;89.59;102666.34;5100480;28;20020;-72
2023/05/27 04:05:46;;;;;;;20.48;6.15;;;;;;;8.13;89.27;102665.56;5083354;28;20031;-73
2023/05/27 04:08:13;;;;;;;22.35;6.18;;;;;;;8.15;89.53;102659.22;5092922;28;20043;-73
2023/05/27 04:10:38;;;;;;;23.63;6.38;;;;;;;8.16;89.82;102657.44;5082404;28;20084;-73
2023/05/27 04:13:04;;;;;;;22.65;5.75;;;;;;;8.12;89.57;102656.66;5101448;28;20039;-73
2023/05/27 04:15:29;;;;;;;23.52;6.28;;;;;;;8.15;89.76;102661.03;5093989;28;20019;-72
2023/05/27 04:17:54;;;;;;;22.00;5.90;;;;;;;8.16;89.65;102660.09;5097194;28;20091;-72
2023/05/27 04:20:20;;;;;;;19.35;5.28;;;;;;;8.17;89.67;102657.38;5097809;28;20024;-72
2023/05/27 04:22:45;;;;;;;24.20;7.15;;;;;;;8.18;90.62;102651.06;5101222;28;20458;-73
2023/05/27 04:25:10;;;;;;;18.70;5.47;;;;;;;8.24;90.70;102660.69;5101645;28;20442;-73
2023/05/27 04:27:39;;;;;;;30.65;6.47;;;;;;;8.25;90.23;102657.09;5099052;28;20024;-73
2023/05/27 04:30:07;;;;;;;21.42;5.85;;;;;;;8.25;90.32;102654.44;5097137;28;20651;-72
2023/05/27 04:32:37;;;;;;;25.83;6.43;;;;;;;8.29;89.86;102655.22;5089122;28;20024;-72
2023/05/27 04:35:09;;;;;;;21.35;6.45;;;;;;;8.28;90.11;102648.97;5090283;28;20110;-73
2023/05/27 04:37:36;;;;;;;19.55;5.68;;;;;;;8.26;90.21;102642.78;5098493;28;20039;-72
2023/05/27 04:40:08;;;;;;;27.05;6.28;;;;;;;8.28;89.65;102640.94;5090665;28;20115;-73
2023/05/27 04:42:36;;;;;;;25.02;7.10;;;;;;;8.34;89.89;102639.84;5100209;28;20056;-73
2023/05/27 04:45:03;;;;;;;19.08;5.88;;;;;;;8.36;90.15;102641.53;5080639;28;20078;-72
2023/05/27 04:47:30;;;;;;;24.15;6.22;;;;;;;8.39;89.79;102635.22;5098099;28;20052;-72
2023/05/27 04:49:56;;;;;;;25.25;6.53;;;;;;;8.36;90.55;102638.88;5093216;28;20148;-72
2023/05/27 04:52:23;;;;;;;24.38;6.05;;;;;;;8.40;90.51;102629.78;5087227;28;20027;-72
2023/05/27 04:54:48;;;;;;;20.83;6.68;;;;;;;8.44;90.37;102635.03;5105505;28;20023;-72
2023/05/27 04:57:18;;;;;;;23.48;6.43;;;;;;;8.48;90.46;102631.34;5103060;28;20048;-72
2023/05/27 05:00:18;;;;;;;21.88;6.70;;;;;;;8.52;90.02;102627.63;5089312;28;20407;-73
2023/05/27 05:02:47;;;;;;;26.33;6.38;;;;;;;8.56;90.22;102618.53;5077782;28;20073;-72
2023/05/27 05:05:13;;;;;;;20.83;7.37;;;;;;;8.60;90.83;102619.31;5097535;28;20024;-72
2023/05/27 05:07:41;;;;;;;21.48;7.22;;;;;;;8.63;90.75;102617.38;5096687;28;20750;-72
2023/05/27 05:10:11;;;;;;;22.85;7.30;;;;;;;8.70;89.96;102621.59;5105174;28;20110;-73
2023/05/27 05:12:37;;;;;;;21.88;6.47;;;;;;;8.75;90.35;102624.09;5082968;28;20032;-72
2023/05/27 05:15:04;;;;;;;27.67;6.57;;;;;;;8.76;89.56;102625.84;5079344;28;20029;-72
2023/05/27 05:17:29;;;;;;;21.92;6.20;;;;;;;8.83;89.82;102626.47;5077154;28;20043;-72
2023/05/27 05:19:55;;;;;;;23.00;6.97;;;;;;;8.87;89.91;102630.81;5073415;28;20428;-72
2023/05/27 05:22:22;;;;;;;23.90;7.30;;;;;;;8.88;89.39;102624.53;5079906;28;20027;-72
2023/05/27 05:24:50;;;;;;;20.48;6.95;;;;;;;8.93;89.50;102633.25;5101340;28;20114;-73
2023/05/27 05:27:16;;;;;;;24.05;7.63;;;;;;;8.98;88.62;102620.56;5094306;28;20110;-72
2023/05/27 05:29:42;;;;;;;21.17;7.72;;;;;;;9.03;88.53;102623.91;5091814;28;20202;-72
2023/05/27 05:32:10;;;;;;;23.45;7.05;;;;;;;9.06;90.60;102618.47;5092016;28;20107;-73
2023/05/27 05:34:36;;;;;;;29.17;7.05;;;;;;;9.12;88.55;102616.47;5100465;28;20019;-72
2023/05/27 05:37:01;;;;;;;22.95;7.13;;;;;;;9.16;89.13;102615.41;5073018;28;20199;-72
2023/05/27 05:39:27;;;;;;;26.80;7.88;;;;;;;9.22;89.27;102613.38;5100963;28;20356;-73
2023/05/27 05:41:52;;;;;;;22.23;7.60;;;;;;;9.27;88.46;102618.56;5099342;28;20035;-72
2023/05/27 05:44:17;;;;;;;22.35;7.47;;;;;;;9.30;88.55;102621.13;5083006;28;20024;-72
2023/05/27 05:46:43;;;;;;;28.05;7.95;;;;;;;9.37;89.45;102616.38;5093452;28;20054;-72
2023/05/27 05:49:08;;;;;;;25.73;8.30;;;;;;;9.43;89.18;102613.47;5101455;28;20091;-72
2023/05/27 05:51:33;;;;;;;26.10;7.85;;;;;;;9.50;89.62;102614.06;5082027;28;20062;-72
2023/05/27 05:53:59;;;;;;;23.90;7.78;;;;;;;9.56;87.86;102603.97;5072069;28;20463;-73
2023/05/27 05:56:25;;;;;;;26.58;7.82;;;;;;;9.62;88.90;102605.53;5101634;28;20040;-72
2023/05/27 05:58:51;;;;;;;28.38;8.35;;;;;;;9.69;89.40;102601.63;5098808;28;20047;-72
2023/05/27 06:01:16;;;;;;;21.38;7.45;;;;;;;9.74;88.65;102596.09;5080972;28;20098;-72
2023/05/27 06:03:41;;;;;;;25.05;7.90;;;;;;;9.77;87.28;102591.47;5095963;28;20053;-73
2023/05/27 06:06:07;;;;;;;26.90;8.18;;;;;;;9.80;87.11;102594.00;5073641;28;20035;-72
2023/05/27 06:08:32;;;;;;;24.33;7.22;;;;;;;9.88;86.99;102595.50;5104012;28;20144;-72
2023/05/27 06:10:57;;;;;;;24.63;7.25;;;;;;;9.94;87.33;102589.84;5091788;28;20486;-72
2023/05/27 06:13:23;;;;;;;29.33;7.80;;;;;;;10.00;86.46;102604.84;5092508;28;20024;-72
2023/05/27 06:15:48;;;;;;;28.95;8.75;;;;;;;10.05;87.19;102592.09;5104035;28;20031;-73
2023/05/27 06:18:13;;;;;;;25.30;8.45;;;;;;;10.11;86.31;102592.69;5080905;28;20425;-72
2023/05/27 06:20:39;;;;;;;32.45;7.70;;;;;;;10.17;86.91;102588.88;5091835;28;20043;-72
2023/05/27 06:23:05;;;;;;;25.90;8.40;;;;;;;10.24;88.02;102592.19;5101681;28;20028;-72
2023/05/27 06:25:30;;;;;;;21.02;7.38;;;;;;;10.34;89.30;102588.19;5081120;28;20024;-72
2023/05/27 06:27:55;;;;;;;20.85;7.05;;;;;;;10.40;87.83;102587.03;5078083;28;20161;-72
2023/05/27 06:30:21;;;;;;;26.38;8.15;;;;;;;10.45;86.77;102585.00;5097262;28;20032;-72
2023/05/27 06:32:46;;;;;;;28.98;8.00;;;;;;;10.49;85.56;102583.91;5080813;28;20024;-72
2023/05/27 06:35:11;;;;;;;21.58;7.10;;;;;;;10.57;85.95;102587.16;5097249;28;20039;-73
2023/05/27 06:37:37;;;;;;;26.35;7.55;;;;;;;10.64;86.66;102580.56;5086018;28;20088;-73
2023/05/27 06:40:03;;;;;;;23.55;6.90;;;;;;;10.71;85.88;102589.19;5077148;28;20038;-73
2023/05/27 06:42:28;;;;;;;25.17;8.43;;;;;;;10.75;84.76;102574.66;5101194;28;20038;-72
2023/05/27 06:44:53;;;;;;;27.83;8.70;;;;;;;10.82;85.43;102577.91;5102586;28;20075;-73
2023/05/27 06:47:18;;;;;;;29.13;7.45;;;;;;;10.92;86.42;102581.06;5084973;28;20110;-72
2023/05/27 06:49:44;;;;;;;21.40;7.45;;;;;;;10.98;86.92;102575.38;5085261;28;20137;-73
2023/05/27 06:52:09;;;;;;;28.65;8.25;;;;;;;11.03;84.60;102578.75;5083306;28;20042;-73
2023/05/27 06:54:36;;;;;;;24.88;7.68;;;;;;;11.08;83.35;102573.13;5067750;28;20027;-73
2023/05/27 06:57:01;;;;;;;28.50;9.02;;;;;;;11.14;83.85;102576.44;5095849;28;20093;-73
2023/05/27 06:59:26;;;;;;;23.13;8.20;;;;;;;11.19;82.69;102573.50;5079709;28;20436;-73
2023/05/27 07:01:52;;;;;;;26.48;7.85;;;;;;;11.25;83.27;102578.59;5083011;28;20023;-73
2023/05/27 07:04:18;;;;;;;29.70;8.25;;;;;;;11.30;83.12;102572.97;5085370;28;20475;-73
2023/05/27 07:06:43;;;;;;;26.85;8.73;;;;;;;11.36;83.43;102569.97;5067079;28;20459;-73
2023/05/27 07:09:08;;;;;;;26.65;8.52;;;;;;;11.43;83.25;102568.72;5095385;28;20073;-73
2023/05/27 07:11:34;;;;;;;22.80;7.57;;;;;;;11.49;84.71;102579.22;5073749;28;20513;-73
2023/05/27 07:13:59;;;;;;;28.52;8.73;;;;;;;11.55;82.94;102572.63;5075438;28;20119;-72
2023/05/27 07:16:24;;;;;;;25.85;8.65;;;;;;;11.59;84.53;102571.53;5100183;28;20027;-72
2023/05/27 07:18:50;;;;;;;26.98;9.05;;;;;;;11.66;83.24;102570.28;5084075;28;20475;-72
2023/05/27 07:21:15;;;;;;;24.92;9.85;;;;;;;11.71;82.33;102572.72;5102974;28;20092;-73
2023/05/27 07:23:40;;;;;;;23.77;8.98;;;;;;;11.78;84.85;102574.16;5076352;28;20032;-72
2023/05/27 07:26:06;;;;;;;24.23;8.57;;;;;;;11.80;82.39;102572.28;5096243;28;20391;-72
2023/05/27 07:28:32;;;;;;;25.25;8.90;;;;;;;11.86;82.09;102563.88;5075659;28;20114;-73
2023/05/27 07:30:57;;;;;;;26.77;8.93;;;;;;;11.93;83.12;102564.47;5072164;28;20064;-72
2023/05/27 07:33:23;;;;;;;28.65;8.85;;;;;;;12.02;83.57;102571.19;5089790;28;20032;-72
2023/05/27 07:35:48;;;;;;;21.73;8.00;;;;;;;12.07;82.34;102558.38;5092261;28;20035;-73
2023/05/27 07:38:14;;;;;;;29.80;9.65;;;;;;;12.13;80.01;102562.56;5074829;28;20119;-73
2023/05/27 07:40:39;;;;;;;25.38;8.73;;;;;;;12.16;79.71;102560.56;5097779;28;20038;-73
2023/05/27 07:43:04;;;;;;;23.17;8.07;;;;;;;12.22;79.55;102554.84;5093316;28;20068;-72
2023/05/27 07:45:30;;;;;;;27.92;9.43;;;;;;;12.28;79.77;102555.50;5094199;28;20036;-72
2023/05/27 07:47:56;;;;;;;23.00;8.35;;;;;;;12.30;79.06;102557.16;5069838;28;20543;-73
2023/05/27 07:50:21;;;;;;;25.10;9.23;;;;;;;12.38;80.92;102554.03;5077029;28;20454;-72
2023/05/27 07:52:46;;;;;;;27.48;9.02;;;;;;;12.43;80.59;102543.91;5079071;28;20115;-72
2023/05/27 07:55:12;;;;;;;29.25;8.80;;;;;;;12.49;81.54;102534.56;5093618;28;20052;-71
2023/05/27 07:57:37;;;;;;;27.38;8.02;;;;;;;12.56;80.28;102539.56;5071284;28;20059;-71
2023/05/27 08:00:05;;;;;;;22.80;7.93;;;;;;;12.64;80.31;102531.06;5100027;28;20484;-73
2023/05/27 08:02:31;;;;;;;25.58;9.05;;;;;;;12.68;78.29;102532.63;5102442;28;20055;-73
2023/05/27 08:04:57;;;;;;;26.50;8.05;;;;;;;12.72;77.61;102528.81;5084293;28;20364;-73
2023/05/27 08:07:22;;;;;;;27.63;9.82;;;;;;;12.76;77.75;102532.19;5077961;28;20024;-73
2023/05/27 08:09:47;;;;;;;26.42;8.27;;;;;;;12.84;79.56;102527.25;5098952;28;20055;-72
2023/05/27 08:12:13;;;;;;;26.10;9.27;;;;;;;12.91;79.83;102520.56;5103431;28;20027;-73
2023/05/27 08:14:39;;;;;;;35.38;10.48;;;;;;;13.00;79.90;102519.16;5089862;28;20067;-73
2023/05/27 08:17:04;;;;;;;26.88;8.77;;;;;;;13.09;80.96;102518.63;5071241;28;20044;-72
2023/05/27 08:19:29;;;;;;;25.45;9.43;;;;;;;13.14;78.17;102512.97;5080274;28;20024;-73
2023/05/27 08:21:55;;;;;;;24.35;8.30;;;;;;;13.20;77.53;102504.50;5084064;28;20030;-73
2023/05/27 08:24:21;;;;;;;24.77;9.52;;;;;;;13.28;79.70;102506.78;5076930;28;20025;-73
2023/05/27 08:26:47;;;;;;;23.10;8.25;;;;;;;13.33;79.55;102510.06;5104454;28;20393;-72
2023/05/27 08:29:12;;;;;;;24.42;8.98;;;;;;;13.39;78.86;102500.75;5105295;28;20043;-73
2023/05/27 08:31:38;;;;;;;26.13;9.10;;;;;;;13.42;76.10;102501.44;5089167;28;20483;-73
2023/05/27 08:34:03;;;;;;;28.10;8.75;;;;;;;13.51;80.35;102491.06;5092093;28;20038;-73
2023/05/27 08:36:28;;;;;;;23.02;8.50;;;;;;;13.58;78.66;102487.03;5094831;28;20023;-73
2023/05/27 08:38:54;;;;;;;29.60;8.60;;;;;;;13.62;76.83;102477.78;5105486;28;20118;-73
2023/05/27 08:41:19;;;;;;;23.58;9.00;;;;;;;13.68;75.84;102474.72;5095107;28;20039;-73
2023/05/27 08:43:45;;;;;;;28.70;8.95;;;;;;;13.75;76.50;102475.22;5097089;28;20035;-73
2023/05/27 08:46:11;;;;;;;27.98;8.45;;;;;;;13.78;74.96;102472.34;5105270;28;20023;-73
2023/05/27 08:48:36;;;;;;;29.33;9.45;;;;;;;13.83;74.85;102469.34;5094962;28;20392;-73
2023/05/27 08:51:03;;;;;;;27.40;10.40;;;;;;;13.93;77.43;102463.25;5103667;28;20034;-73
2023/05/27 08:53:28;;;;;;;25.40;7.43;;;;;;;14.01;74.89;102468.19;5105321;28;20034;-72
2023/05/27 08:55:54;;;;;;;22.67;7.78;;;;;;;14.09;75.27;102470.44;5105382;28;20052;-73
2023/05/27 08:58:20;;;;;;;22.75;8.23;;;;;;;14.15;74.45;102456.53;5102250;28;20387;-72
2023/05/27 09:00:45;;;;;;;24.23;7.57;;;;;;;14.20;74.95;102454.38;5079634;28;20031;-73
2023/05/27 09:03:11;;;;;;;24.88;9.88;;;;;;;14.26;74.64;102456.72;5092824;28;20059;-72
2023/05/27 09:05:37;;;;;;;23.42;8.80;;;;;;;14.38;77.36;102456.91;5097777;28;20036;-72
2023/05/27 09:08:02;;;;;;;26.63;8.95;;;;;;;14.43;75.19;102454.78;5082720;28;20034;-72
2023/05/27 09:10:41;;;;;;;21.92;8.57;;;;;;;14.47;70.51;102448.22;5104422;28;20111;-72
2023/05/27 09:13:07;;;;;;;25.20;7.55;;;;;;;14.60;71.93;102451.84;5101988;28;20497;-72
2023/05/27 09:15:34;;;;;;;26.05;9.07;;;;;;;14.63;71.63;102454.38;5085937;28;20032;-73
2023/05/27 09:17:59;;;;;;;22.10;7.53;;;;;;;14.72;71.09;102447.50;5104931;28;20080;-73
2023/05/27 09:20:26;;;;;;;24.70;8.02;;;;;;;14.80;69.52;102441.59;5104268;28;20424;-72
2023/05/27 09:22:59;;;;;;;27.75;7.82;;;;;;;14.90;71.55;102444.56;5078990;28;20031;-72
2023/05/27 09:25:25;;;;;;;27.65;8.57;;;;;;;14.94;68.86;102444.25;5092328;28;20044;-73
2023/05/27 09:27:54;;;;;;;23.50;8.20;;;;;;;15.02;70.68;102436.50;5067527;28;20031;-71
2023/05/27 09:30:20;;;;;;;23.13;8.45;;;;;;;15.07;70.11;102438.03;5094538;28;20020;-72
2023/05/27 09:32:46;;;;;;;26.23;8.23;;;;;;;15.16;69.75;102432.00;5098289;28;20043;-73
2023/05/27 09:35:13;;;;;;;31.33;9.63;;;;;;;15.16;67.16;102426.56;5090441;28;20035;-72
2023/05/27 09:37:39;;;;;;;32.25;8.88;;;;;;;15.25;70.48;102425.94;5091865;28;20062;-73
2023/05/27 09:40:08;;;;;;;23.23;8.00;;;;;;;15.30;69.09;102431.03;5105570;28;20028;-73
2023/05/27 09:42:43;;;;;;;25.73;7.97;;;;;;;15.29;67.33;102419.34;5082194;28;20028;-73
2023/05/27 09:45:18;;;;;;;23.67;7.72;;;;;;;15.36;68.84;102417.09;5074539;28;20533;-73
2023/05/27 09:47:48;;;;;;;21.98;7.40;;;;;;;15.43;67.65;102425.66;5105762;28;20031;-73
2023/05/27 09:50:16;;;;;;;22.38;7.47;;;;;;;15.50;66.52;102416.97;5065423;28;20024;-72
2023/05/27 09:52:43;;;;;;;25.40;8.25;;;;;;;15.60;68.56;102419.06;5090007;28;20420;-72
2023/05/27 09:55:11;;;;;;;24.15;7.78;;;;;;;15.60;65.03;102409.09;5089690;28;20034;-72
2023/05/27 09:57:37;;;;;;;25.92;7.53;;;;;;;15.72;68.24;102404.66;5082879;28;20016;-72
2023/05/27 10:00:11;;;;;;;29.52;7.97;;;;;;;15.78;68.03;102406.94;5101301;28;20011;-72
2023/05/27 10:02:38;;;;;;;22.13;7.90;;;;;;;15.74;63.62;102400.00;5098688;28;20213;-72
2023/05/27 10:05:09;;;;;;;23.80;7.40;;;;;;;15.77;66.37;102404.31;5082751;28;20432;-72
2023/05/27 10:07:37;;;;;;;30.20;7.90;;;;;;;15.76;65.32;102394.47;5104231;28;20434;-72
2023/05/27 10:10:08;;;;;;;24.48;7.20;;;;;;;15.77;65.96;102391.66;5089780;28;20119;-72
2023/05/27 10:12:35;;;;;;;21.70;8.32;;;;;;;15.82;68.41;102391.34;5082352;28;20748;-73
2023/05/27 10:15:00;;;;;;;27.33;7.85;;;;;;;15.82;68.92;102388.66;5087421;28;20031;-72
2023/05/27 10:17:26;;;;;;;25.27;8.88;;;;;;;15.87;71.64;102384.63;5105308;28;20031;-73
2023/05/27 10:19:56;;;;;;;23.70;8.15;;;;;;;15.89;69.27;102381.81;5100809;28;20028;-72
2023/05/27 10:22:22;;;;;;;24.52;7.90;;;;;;;15.95;70.83;102375.09;5079373;28;20023;-73
2023/05/27 10:24:52;;;;;;;24.88;8.85;;;;;;;16.03;69.84;102378.09;5082968;28;20111;-72
2023/05/27 10:27:18;;;;;;;27.60;8.23;;;;;;;16.16;72.33;102375.38;5081189;28;20024;-72
2023/05/27 10:29:43;;;;;;;29.55;8.85;;;;;;;16.21;68.69;102367.78;5087069;28;20033;-72
2023/05/27 10:32:09;;;;;;;23.90;8.20;;;;;;;16.32;70.73;102372.41;5072953;28;20107;-72
2023/05/27 10:34:35;;;;;;;29.08;8.93;;;;;;;16.38;69.46;102367.41;5082382;28;20642;-73
2023/05/27 10:37:01;;;;;;;26.65;8.88;;;;;;;16.45;68.82;102364.22;5063740;28;20027;-72
2023/05/27 10:39:26;;;;;;;33.30;9.52;;;;;;;16.50;68.86;102371.06;5087409;28;20035;-73
2023/05/27 10:41:53;;;;;;;26.60;8.38;;;;;;;16.59;67.58;102364.94;5093558;28;20036;-73
2023/05/27 10:44:39;;;;;;;27.85;8.40;;;;;;;16.63;67.96;102362.84;5063917;28;20101;-73
2023/05/27 10:47:11;;;;;;;25.65;8.27;;;;;;;16.73;69.80;102355.72;5096482;28;20024;-73
2023/05/27 10:49:39;;;;;;;25.90;7.38;;;;;;;16.73;69.08;102357.59;5079480;28;20375;-72
2023/05/27 10:52:17;;;;;;;27.90;8.13;;;;;;;16.77;66.68;102351.81;5096089;28;20024;-73
2023/05/27 10:54:46;;;;;;;26.25;8.20;;;;;;;16.75;62.88;102356.50;5074531;28;20036;-73
2023/05/27 10:57:12;;;;;;;22.42;7.63;;;;;;;16.79;66.28;102351.69;5094408;28;20056;-73
2023/05/27 10:59:53;;;;;;;23.60;7.30;;;;;;;16.88;65.92;102352.88;5089950;28;20028;-72
2023/05/27 11:02:20;;;;;;;27.42;7.57;;;;;;;16.96;66.22;102334.16;5099016;28;20025;-73
2023/05/27 11:04:48;;;;;;;27.13;7.97;;;;;;;17.01;67.81;102331.94;5094191;28;20535;-72
2023/05/27 11:07:18;;;;;;;22.95;6.72;;;;;;;17.04;64.21;102339.88;5082853;28;20027;-72
2023/05/27 11:09:45;;;;;;;25.50;7.88;;;;;;;17.05;64.65;102332.56;5077408;28;20034;-73
2023/05/27 11:12:17;;;;;;;30.27;8.15;;;;;;;17.13;64.84;102322.00;5073404;28;20024;-73
2023/05/27 11:14:43;;;;;;;27.92;8.68;;;;;;;17.20;64.64;102319.63;5092410;28;20544;-72
2023/05/27 11:17:12;;;;;;;27.83;8.05;;;;;;;17.22;64.69;102320.38;5089716;28;20469;-73
2023/05/27 11:19:41;;;;;;;25.52;8.35;;;;;;;17.27;65.94;102310.03;5099564;28;20028;-73